North Cascades National Park, WA

1:56 PM PDT on August 20, 2014 (GMT -0700)
Newhalem Helistop | Change Station
CLOSE
Current Station
Personal Weather Station
Location: Newhalem, WA
Elevation: 504 ft
Nearby Weather Stations

Elev 504 ft 48.67 °N, 121.25 °W | Updated 20 seconds ago

Clear
Clear
74.8 °F
Feels Like 77 °F
N
10.0
Wind Variable Wind from West
Gusts 17.0 mph

Today
High -- | Low -- °F
--% Chance of Precip.
Yesterday
High -- | Low -- °F
Precip. -- in
6:06 AM 8:10 PM
Waning Crescent, 19% visible
Pressure 29.98 in
Visibility 10.0 miles
Clouds Clear
Heat Index 77 °F
Dew Point 58 °F
Humidity 56%
Rainfall 0.00 in
Snow Depth Not available.
UV 5.5 out of 12
Pollen 2.70 out of 12
PM2.5 Good
Flu Activity Not available.
METAR KAWO 202035Z AUTO 20007G16KT 140V210 10SM CLR 21/12 A2998 RMK AO1

More Conditions Fewer Conditions

Pressure 29.98 in
Visibility 10.0 miles
Clouds Clear
Heat Index 77 °F
Dew Point 58 °F
Humidity 56%
Rainfall 0.00 in
Snow Depth Not available.
UV 5.5 out of 12
Pollen 2.70 out of 12
PM2.5 Good
Flu Activity Not available.
METAR KAWO 202035Z AUTO 20007G16KT 140V210 10SM CLR 21/12 A2998 RMK AO1

More Conditions Fewer Conditions

10-Day Weather Forecast

Almanac

Astronomy

Aug. 20, 2014 Rise Set
Actual Time 6:06 AM PDT 8:10 PM PDT
Civil Twilight 5:32 AM PDT 8:44 PM PDT
Nautical Twilight 4:50 AM PDT 9:26 PM PDT
Astronomical Twilight 4:02 AM PDT 10:13 PM PDT
Moon 1:41 AM PDT 5:08 PM PDT
Length of Visible Light 15h 12m
Length of Day
14h 04m
Tomorrow will be 3m 16s shorter.
Waning Crescent, 19% of the Moon is Illuminated
Today
Waning Crescent
Aug 25
New
Sep 2
First Quarter
Sep 8
Full
Sep 15
Last Quarter

Today's Extremes

State Highs State Lows

Community

WunderPhotos

Upload Photos

1,745,750 photos uploaded!

WunderBlogs® & News

Nearby

Air Quality

  Air Quality AQ Index Pollutant
Yesterday Good
PM2.5
Current Good
PM2.5
Wednesday Good
OZONE
Wednesday Good
PM2.5
Thursday Good
OZONE
Thursday Good
PM2.5
Friday Good
OZONE
Friday Good
PM2.5
Saturday Good
OZONE
Saturday Good
PM2.5

Snow Depth

Station Depth Elevation
Rainy Pass 0 in 4780 ft
Lyman Lake 0 in 5900 ft
Harts Pass 0 in 6500 ft
Alpine Meadows 0 in 3500 ft
Stevens Pass 0 in 4070 ft

Earthquake Activity

City Distance Mag. Time & Date
No recent earthquake activity has been reported nearby.
Minimum magnitude displayed is 2.5.

Coastal Water Temperatures

Place Temperature
No Stations Reporting

Nearby Weather Stations